createdAt,value
2019-04-20T00:01:25.771Z,10.17
2019-04-20T00:05:27.478Z,10.10
2019-04-20T00:09:36.552Z,10.01
2019-04-20T00:13:47.719Z,9.80
2019-04-20T00:17:52.229Z,9.77
2019-04-20T00:22:13.677Z,9.76
2019-04-20T00:26:27.364Z,9.77
2019-04-20T00:30:48.138Z,9.59
2019-04-20T00:34:37.176Z,9.57
2019-04-20T00:38:42.653Z,9.51
2019-04-20T00:42:51.658Z,9.50
2019-04-20T00:47:04.917Z,9.47
2019-04-20T00:51:17.364Z,9.31
2019-04-20T00:55:06.390Z,9.24
2019-04-20T00:59:26.577Z,9.18
2019-04-20T01:03:33.906Z,9.21
2019-04-20T01:07:40.792Z,9.25
2019-04-20T01:11:42.180Z,9.16
2019-04-20T01:15:54.083Z,9.10
2019-04-20T01:19:52.792Z,9.10
2019-04-20T01:24:02.937Z,9.00
2019-04-20T01:28:24.195Z,8.90
2019-04-20T01:32:23.339Z,8.91
2019-04-20T01:36:36.798Z,8.95
2019-04-20T01:40:25.526Z,8.96
2019-04-20T01:44:36.869Z,9.09
2019-04-20T01:48:39.615Z,9.00
2019-04-20T01:52:56.475Z,8.98
2019-04-20T01:57:09.410Z,8.86
2019-04-20T02:01:16.594Z,8.73
2019-04-20T02:05:22.867Z,8.58
2019-04-20T02:09:26.017Z,8.58
2019-04-20T02:13:38.873Z,8.66
2019-04-20T02:17:43.545Z,8.55
2019-04-20T02:21:55.928Z,8.45
2019-04-20T02:25:50.070Z,8.38
2019-04-20T02:30:21.649Z,8.41
2019-04-20T02:34:39.607Z,8.42
2019-04-20T02:43:09.457Z,8.31
2019-04-20T02:47:14.728Z,8.23
2019-04-20T02:51:22.953Z,8.10
2019-04-20T02:55:32.218Z,8.04
2019-04-20T02:59:54.071Z,7.96
2019-04-20T03:03:20.503Z,7.90
2019-04-20T03:07:32.931Z,7.86
2019-04-20T03:11:52.949Z,7.92
2019-04-20T03:15:53.476Z,7.92
2019-04-20T03:19:50.575Z,7.76
2019-04-20T03:24:08.435Z,7.78
2019-04-20T03:28:10.302Z,7.85
2019-04-20T03:32:49.823Z,7.72
2019-04-20T03:36:47.210Z,7.61
2019-04-20T03:40:24.394Z,7.44
2019-04-20T03:44:21.002Z,7.41
2019-04-20T03:48:41.506Z,7.56
2019-04-20T03:53:10.640Z,7.53
2019-04-20T03:57:21.231Z,7.35
2019-04-20T04:02:01.672Z,7.28
2019-04-20T04:05:48.034Z,7.18
2019-04-20T04:10:00.790Z,7.24
2019-04-20T04:13:48.159Z,7.30
2019-04-20T04:17:53.155Z,7.31
2019-04-20T04:22:11.125Z,7.36
2019-04-20T04:26:24.567Z,7.41
2019-04-20T04:30:27.957Z,7.41
2019-04-20T04:34:39.112Z,7.39
2019-04-20T04:38:48.747Z,7.45
2019-04-20T04:42:54.872Z,7.45
2019-04-20T04:46:44.631Z,7.32
2019-04-20T04:50:50.893Z,7.23
2019-04-20T04:54:58.731Z,7.30
2019-04-20T04:58:58.200Z,7.33
2019-04-20T05:03:23.314Z,7.36
2019-04-20T05:07:26.698Z,7.51
2019-04-20T05:11:19.698Z,7.64
2019-04-20T05:15:37.850Z,7.79
2019-04-20T05:19:55.282Z,7.87
2019-04-20T05:23:53.418Z,8.09
2019-04-20T05:28:08.184Z,8.35
2019-04-20T05:32:02.736Z,8.60
2019-04-20T05:36:18.517Z,9.24
2019-04-20T05:40:29.264Z,11.30
2019-04-20T05:44:39.446Z,11.11
2019-04-20T05:48:45.724Z,12.57
2019-04-20T05:56:58.885Z,19.83
2019-04-20T06:01:05.572Z,21.87
2019-04-20T06:05:10.140Z,23.20
2019-04-20T06:09:15.641Z,24.23
2019-04-20T06:13:32.651Z,25.06
2019-04-20T06:18:05.126Z,25.81
2019-04-20T06:22:22.583Z,26.50
2019-04-20T06:30:43.242Z,27.88
2019-04-20T06:35:00.546Z,28.68
2019-04-20T06:39:12.928Z,29.30
2019-04-20T06:43:09.077Z,29.97
2019-04-20T06:47:18.778Z,30.34
2019-04-20T06:51:42.113Z,30.76
2019-04-20T06:55:51.198Z,31.13
2019-04-20T06:59:56.178Z,31.31
2019-04-20T07:04:24.782Z,29.75
2019-04-20T07:08:16.986Z,25.10
2019-04-20T07:12:12.515Z,21.87
2019-04-20T07:16:33.023Z,19.88
2019-04-20T07:20:49.091Z,18.79
2019-04-20T07:24:55.133Z,18.25
2019-04-20T07:28:58.972Z,17.86
2019-04-20T07:37:55.050Z,17.34
2019-04-20T07:41:41.979Z,17.25
2019-04-20T07:45:33.531Z,17.14
2019-04-20T07:49:40.425Z,17.17
2019-04-20T07:53:45.081Z,17.21
2019-04-20T07:57:55.109Z,17.24
2019-04-20T08:02:15.750Z,17.30
2019-04-20T08:06:25.055Z,17.34
2019-04-20T08:10:47.423Z,17.37
2019-04-20T08:14:56.839Z,17.40
2019-04-20T08:18:53.574Z,17.44
2019-04-20T08:23:09.273Z,17.53
2019-04-20T08:26:58.969Z,17.64
2019-04-20T08:31:30.127Z,17.74
2019-04-20T08:35:47.520Z,17.86
2019-04-20T08:39:58.332Z,17.98
2019-04-20T08:44:11.445Z,18.11
2019-04-20T08:48:12.865Z,18.27
2019-04-20T08:52:33.925Z,18.43
2019-04-20T08:56:13.117Z,18.65
2019-04-20T09:00:06.880Z,18.98
2019-04-20T09:04:18.613Z,19.10
2019-04-20T09:08:24.894Z,19.28
2019-04-20T09:12:43.629Z,19.45
2019-04-20T09:16:38.804Z,19.53
2019-04-20T09:20:48.717Z,19.64
2019-04-20T09:25:13.347Z,19.76
2019-04-20T09:29:04.149Z,19.89
2019-04-20T09:33:36.311Z,20.03
2019-04-20T09:37:43.132Z,20.10
2019-04-20T09:42:00.920Z,20.10
2019-04-20T09:46:02.095Z,20.23
2019-04-20T09:50:22.536Z,20.21
2019-04-20T09:54:31.244Z,20.16
2019-04-20T09:58:31.120Z,20.22
2019-04-20T10:02:30.938Z,20.28
2019-04-20T10:06:35.885Z,20.36
2019-04-20T10:10:42.033Z,20.48
2019-04-20T10:14:45.298Z,20.65
2019-04-20T10:18:53.508Z,20.72
2019-04-20T10:22:56.805Z,20.83
2019-04-20T10:27:03.060Z,20.97
2019-04-20T10:31:10.654Z,21.09
2019-04-20T10:35:18.596Z,21.09
2019-04-20T10:39:24.608Z,21.11
2019-04-20T10:43:30.211Z,21.21
2019-04-20T10:47:35.255Z,21.22
2019-04-20T10:51:40.152Z,21.39
2019-04-20T10:55:45.286Z,21.54
2019-04-20T10:59:51.926Z,21.63
2019-04-20T11:03:56.998Z,21.70
2019-04-20T11:08:02.292Z,21.71
2019-04-20T11:12:08.304Z,21.83
2019-04-20T11:16:14.767Z,21.83
2019-04-20T11:20:19.866Z,21.84
2019-04-20T11:24:26.058Z,21.98
2019-04-20T11:28:32.263Z,22.00
2019-04-20T11:32:37.966Z,22.04
2019-04-20T11:36:43.367Z,22.05
2019-04-20T11:41:02.511Z,22.03
2019-04-20T11:44:54.990Z,22.10
2019-04-20T11:48:59.864Z,22.01
2019-04-20T11:53:05.591Z,21.93
2019-04-20T11:57:11.358Z,22.01
2019-04-20T12:01:30.158Z,22.15
2019-04-20T12:05:38.135Z,22.22
2019-04-20T12:09:37.826Z,22.24
2019-04-20T12:13:42.822Z,22.24
2019-04-20T12:17:47.693Z,22.36
2019-04-20T12:21:53.826Z,22.47
2019-04-20T12:25:59.789Z,22.70
2019-04-20T12:30:10.113Z,22.67
2019-04-20T12:34:16.156Z,22.68
2019-04-20T12:38:21.180Z,22.88
2019-04-20T12:42:26.072Z,23.05
2019-04-20T12:46:31.928Z,23.17
2019-04-20T12:50:37.416Z,23.38
2019-04-20T12:54:45.963Z,23.45
2019-04-20T12:58:51.531Z,23.33
2019-04-20T13:02:56.560Z,23.13
2019-04-20T13:07:03.715Z,23.25
2019-04-20T13:11:16.435Z,23.36
2019-04-20T13:15:28.789Z,23.45
2019-04-20T13:19:33.782Z,23.43
2019-04-20T13:23:40.601Z,23.46
2019-04-20T13:27:45.518Z,23.54
2019-04-20T13:31:52.019Z,23.63
2019-04-20T13:35:58.289Z,23.58
2019-04-20T13:40:06.965Z,23.38
2019-04-20T13:44:11.985Z,23.31
2019-04-20T13:48:17.045Z,23.40
2019-04-20T13:52:22.714Z,23.52
2019-04-20T13:56:28.098Z,23.67
2019-04-20T14:00:48.592Z,23.83
2019-04-20T14:04:54.947Z,23.93
2019-04-20T14:09:01.302Z,24.00
2019-04-20T14:13:14.499Z,24.00
2019-04-20T14:17:15.037Z,23.96
2019-04-20T14:21:20.387Z,23.87
2019-04-20T14:25:25.439Z,23.97
2019-04-20T14:29:30.647Z,23.91
2019-04-20T14:33:36.890Z,23.82
2019-04-20T14:37:41.884Z,23.88
2019-04-20T14:41:46.760Z,23.96
2019-04-20T14:45:52.475Z,24.02
2019-04-20T14:50:00.770Z,23.98
2019-04-20T14:54:05.434Z,23.97
2019-04-20T14:58:13.034Z,23.96
2019-04-20T15:02:19.844Z,23.98
2019-04-20T15:06:25.529Z,23.93
2019-04-20T15:10:31.077Z,23.86
2019-04-20T15:14:36.747Z,23.85
2019-04-20T15:18:51.849Z,23.89
2019-04-20T15:22:57.627Z,23.86
2019-04-20T15:27:02.616Z,23.81
2019-04-20T15:31:07.974Z,23.74
2019-04-20T15:35:18.972Z,23.69
2019-04-20T15:39:21.060Z,23.64
2019-04-20T15:43:27.875Z,23.65
2019-04-20T15:47:34.101Z,23.68
2019-04-20T15:51:39.791Z,23.71
2019-04-20T15:55:46.919Z,23.63
2019-04-20T15:59:52.603Z,23.56
2019-04-20T16:03:59.388Z,23.53
2019-04-20T16:08:23.681Z,23.58
2019-04-20T16:12:29.101Z,23.58
2019-04-20T16:16:34.069Z,23.60
2019-04-20T16:20:51.960Z,23.57
2019-04-20T16:24:47.193Z,23.57
2019-04-20T16:28:53.370Z,23.54
2019-04-20T16:32:58.732Z,23.48
2019-04-20T16:37:04.313Z,23.45
2019-04-20T16:41:10.345Z,23.40
2019-04-20T16:45:15.423Z,23.36
2019-04-20T16:49:21.303Z,23.30
2019-04-20T16:53:26.860Z,23.23
2019-04-20T16:57:31.946Z,23.01
2019-04-20T17:01:37.177Z,22.85
2019-04-20T17:05:43.252Z,22.69
2019-04-20T17:09:49.894Z,22.57
2019-04-20T17:13:57.993Z,22.41
2019-04-20T17:18:01.609Z,22.27
2019-04-20T17:22:07.555Z,22.14
2019-04-20T17:26:14.705Z,22.02
2019-04-20T17:30:25.551Z,21.94
2019-04-20T17:34:46.971Z,21.85
2019-04-20T17:38:43.375Z,21.74
2019-04-20T17:42:53.179Z,21.62
2019-04-20T17:47:00.499Z,21.49
2019-04-20T17:51:17.407Z,21.32
2019-04-20T17:55:22.915Z,21.15
2019-04-20T17:59:22.238Z,20.99
2019-04-20T18:04:03.278Z,20.84
2019-04-20T18:07:56.536Z,20.70
2019-04-20T18:11:50.338Z,20.55
2019-04-20T18:16:17.050Z,20.38
2019-04-20T18:20:07.390Z,20.18
2019-04-20T18:24:24.197Z,20.01
2019-04-20T18:28:32.404Z,19.86
2019-04-20T18:32:27.496Z,19.67
2019-04-20T18:36:38.298Z,19.48
2019-04-20T18:40:48.367Z,19.31
2019-04-20T18:45:09.238Z,19.09
2019-04-20T18:49:10.283Z,18.84
2019-04-20T18:53:00.150Z,18.67
2019-04-20T18:57:11.409Z,18.44
2019-04-20T19:01:12.860Z,18.23
2019-04-20T19:05:18.143Z,18.02
2019-04-20T19:09:27.167Z,17.80
2019-04-20T19:13:44.062Z,17.67
2019-04-20T19:17:59.240Z,17.55
2019-04-20T19:21:56.189Z,17.45
2019-04-20T19:26:08.323Z,17.34
2019-04-20T19:30:22.600Z,17.23
2019-04-20T19:34:35.437Z,17.00
2019-04-20T19:38:29.618Z,16.80
2019-04-20T19:42:43.476Z,16.62
2019-04-20T19:47:03.268Z,16.49
2019-04-20T19:51:05.898Z,16.31
2019-04-20T19:55:06.644Z,16.23
2019-04-20T19:59:10.983Z,16.11
2019-04-20T20:03:03.659Z,15.98
2019-04-20T20:07:18.783Z,15.71
2019-04-20T20:11:21.770Z,15.55
2019-04-20T20:15:27.834Z,15.53
2019-04-20T20:19:46.118Z,15.40
2019-04-20T20:23:36.247Z,15.16
2019-04-20T20:27:49.136Z,14.80
2019-04-20T20:32:03.308Z,14.81
2019-04-20T20:36:04.213Z,14.76
2019-04-20T20:40:11.025Z,14.50
2019-04-20T20:44:22.279Z,14.16
2019-04-20T20:48:29.732Z,14.05
2019-04-20T20:52:39.671Z,14.06
2019-04-20T20:56:35.828Z,13.83
2019-04-20T21:00:48.457Z,13.62
2019-04-20T21:04:43.720Z,13.55
2019-04-20T21:08:53.166Z,13.50
2019-04-20T21:12:57.815Z,13.27
2019-04-20T21:17:12.266Z,13.16
2019-04-20T21:21:26.243Z,13.22
2019-04-20T21:25:17.021Z,13.27
2019-04-20T21:29:29.950Z,13.10
2019-04-20T21:33:32.714Z,12.81
2019-04-20T21:37:35.158Z,12.82
2019-04-20T21:41:49.712Z,12.91
2019-04-20T21:45:52.376Z,12.73
2019-04-20T21:50:13.491Z,12.41
2019-04-20T21:54:02.053Z,12.28
2019-04-20T21:58:09.096Z,12.30
2019-04-20T22:02:20.933Z,12.19
2019-04-20T22:06:22.342Z,12.04
2019-04-20T22:10:30.886Z,12.02
2019-04-20T22:14:35.312Z,12.01
2019-04-20T22:18:54.368Z,11.88
2019-04-20T22:22:59.805Z,11.67
2019-04-20T22:27:05.419Z,11.57
2019-04-20T22:31:00.367Z,11.46
2019-04-20T22:35:11.948Z,11.42
2019-04-20T22:39:39.704Z,11.34
2019-04-20T22:43:40.302Z,11.29
2019-04-20T22:47:45.914Z,11.28
2019-04-20T22:51:59.672Z,11.28
2019-04-20T22:56:22.107Z,11.19
2019-04-20T23:00:11.051Z,11.12
2019-04-20T23:04:15.001Z,11.09
2019-04-20T23:08:20.452Z,11.04
2019-04-20T23:12:27.585Z,11.02
2019-04-20T23:16:37.965Z,11.00
2019-04-20T23:20:40.511Z,10.99
2019-04-20T23:24:45.265Z,10.76
2019-04-20T23:28:55.224Z,10.68
2019-04-20T23:32:57.940Z,10.67
2019-04-20T23:37:03.060Z,10.56
2019-04-20T23:41:08.069Z,10.50
2019-04-20T23:45:34.042Z,10.46
2019-04-20T23:49:54.409Z,10.37
2019-04-20T23:53:53.950Z,10.23
2019-04-20T23:57:55.851Z,10.19
